Time;durP1;ratioP1;P1;durP2;ratioP2;P2;SDS_P1;SDS_P2;PMS_P1;PMS_P2;Temp;Humidity;BMP_temperature;BMP_pressure;BME280_temperature;BME280_humidity;BME280_pressure;Samples;Min_cycle;Max_cycle;Signal;HPM_P1;HPM_P2
2022/05/19 00:01:11;;;;;;;8.25;3.10;;;;;;;10.80;86.72;101412.69;5052677;28;20400;-73
2022/05/19 00:03:40;;;;;;;8.18;3.35;;;;;;;10.75;88.28;101418.25;5052992;28;20498;-73
2022/05/19 00:06:11;;;;;;;7.43;3.03;;;;;;;10.74;90.47;101411.19;5055167;28;20053;-73
2022/05/19 00:08:40;;;;;;;9.98;3.47;;;;;;;10.77;89.37;101411.03;5057018;28;20049;-73
2022/05/19 00:11:13;;;;;;;6.65;3.00;;;;;;;10.72;91.21;101418.38;5056041;28;20124;-74
2022/05/19 00:13:42;;;;;;;7.60;3.15;;;;;;;10.73;94.78;101420.13;5055525;28;20132;-73
2022/05/19 00:16:11;;;;;;;9.52;3.40;;;;;;;10.70;94.27;101412.22;5055128;28;20044;-73
2022/05/19 00:18:39;;;;;;;7.40;3.13;;;;;;;10.65;93.11;101411.56;5056188;28;20161;-73
2022/05/19 00:21:07;;;;;;;6.07;3.17;;;;;;;10.62;93.48;101417.03;5056252;28;20098;-76
2022/05/19 00:23:35;;;;;;;9.75;3.25;;;;;;;10.64;93.41;101416.97;5056502;28;20045;-73
2022/05/19 00:26:05;;;;;;;9.65;3.03;;;;;;;10.94;84.82;101420.13;5056499;28;20041;-74
2022/05/19 00:28:34;;;;;;;7.22;3.30;;;;;;;10.89;85.95;101426.53;5056151;28;20041;-73
2022/05/19 00:31:02;;;;;;;7.30;2.55;;;;;;;10.86;84.73;101415.97;5055003;28;20382;-73
2022/05/19 00:33:33;;;;;;;9.80;3.40;;;;;;;10.94;86.91;101421.00;5054779;28;20501;-73
2022/05/19 00:36:08;;;;;;;8.80;4.18;;;;;;;10.83;79.34;101420.59;5056052;28;20486;-73
2022/05/19 00:38:36;;;;;;;11.65;4.55;;;;;;;10.91;75.42;101430.94;5056241;28;20140;-74
2022/05/19 00:41:07;;;;;;;9.23;4.15;;;;;;;10.86;72.59;101426.66;5056205;28;20356;-74
2022/05/19 00:43:40;;;;;;;10.80;4.13;;;;;;;10.77;70.32;101431.53;5056268;28;20074;-74
2022/05/19 00:46:13;;;;;;;7.80;3.20;;;;;;;10.70;67.84;101433.56;5056227;28;20044;-73
2022/05/19 00:48:50;;;;;;;6.85;3.05;;;;;;;10.71;65.98;101427.34;5056203;28;20049;-73
2022/05/19 00:51:20;;;;;;;7.55;3.10;;;;;;;10.79;66.04;101430.50;5054195;28;20085;-74
2022/05/19 00:53:52;;;;;;;7.68;3.00;;;;;;;10.55;67.21;101424.41;5054701;28;20044;-73
2022/05/19 00:56:27;;;;;;;9.20;3.17;;;;;;;10.29;69.50;101430.81;5054421;28;20045;-74
2022/05/19 00:59:03;;;;;;;5.13;2.92;;;;;;;10.42;70.63;101430.31;5055552;28;20466;-73
2022/05/19 01:01:33;;;;;;;8.23;3.30;;;;;;;10.25;71.61;101428.34;5054210;28;20045;-73
2022/05/19 01:04:09;;;;;;;11.88;3.47;;;;;;;10.18;74.02;101435.69;5055816;28;20040;-73
2022/05/19 01:06:39;;;;;;;8.20;3.42;;;;;;;10.04;74.48;101427.38;5055560;28;20041;-73
2022/05/19 01:09:10;;;;;;;12.88;3.35;;;;;;;10.09;72.25;101428.03;5054434;28;20060;-73
2022/05/19 01:11:40;;;;;;;7.70;3.50;;;;;;;10.15;71.51;101418.94;5055695;28;20107;-73
2022/05/19 01:14:08;;;;;;;7.30;3.30;;;;;;;10.08;72.80;101428.97;5055413;28;20477;-73
2022/05/19 01:16:38;;;;;;;8.45;3.05;;;;;;;9.98;74.72;101424.94;5054712;28;20417;-73
2022/05/19 01:19:18;;;;;;;5.57;2.83;;;;;;;9.89;75.79;101425.28;5055497;28;20045;-73
2022/05/19 01:21:49;;;;;;;7.45;3.20;;;;;;;9.81;74.36;101424.72;5055351;28;20048;-72
2022/05/19 01:24:25;;;;;;;6.40;3.20;;;;;;;9.83;73.96;101425.50;5053939;28;20064;-72
2022/05/19 01:26:57;;;;;;;5.93;3.17;;;;;;;9.86;71.49;101420.09;5055411;28;20051;-72
2022/05/19 01:29:29;;;;;;;6.97;3.42;;;;;;;10.06;69.62;101430.84;5053785;28;20512;-72
2022/05/19 01:31:59;;;;;;;7.28;2.85;;;;;;;10.24;67.57;101419.47;5054175;28;20044;-74
2022/05/19 01:34:30;;;;;;;6.35;3.15;;;;;;;10.18;70.18;101425.00;5055014;28;20541;-74
2022/05/19 01:36:58;;;;;;;7.68;3.22;;;;;;;9.99;72.49;101427.53;5053914;28;20479;-74
2022/05/19 01:39:28;;;;;;;8.85;2.65;;;;;;;10.02;68.93;101431.88;5070048;28;20056;-74
2022/05/19 01:42:14;;;;;;;6.32;2.85;;;;;;;9.95;71.94;101425.94;5055055;28;20482;-73
2022/05/19 01:44:52;;;;;;;8.65;3.63;;;;;;;9.83;74.42;101428.19;5054250;28;20140;-72
2022/05/19 01:47:28;;;;;;;5.70;2.80;;;;;;;9.75;75.12;101425.84;5054494;28;20072;-73
2022/05/19 01:50:02;;;;;;;7.90;3.10;;;;;;;9.66;75.93;101428.84;5053712;28;20133;-72
2022/05/19 01:52:39;;;;;;;5.60;3.13;;;;;;;9.60;76.66;101418.41;5054794;28;20462;-72
2022/05/19 01:55:14;;;;;;;8.38;3.58;;;;;;;9.59;81.81;101428.19;5054821;28;20431;-72
2022/05/19 01:57:52;;;;;;;10.07;3.08;;;;;;;9.55;84.22;101431.88;5054519;28;20040;-72
2022/05/19 02:00:24;;;;;;;8.10;3.40;;;;;;;9.44;86.25;101428.75;5054552;28;20123;-72
2022/05/19 02:02:57;;;;;;;6.43;3.17;;;;;;;9.48;86.08;101435.72;5054608;28;20043;-72
2022/05/19 02:05:36;;;;;;;7.10;3.17;;;;;;;9.56;85.81;101425.66;5054430;28;20045;-72
2022/05/19 02:08:08;;;;;;;7.40;3.05;;;;;;;9.72;87.20;101428.59;5054710;28;20068;-72
2022/05/19 02:10:42;;;;;;;6.90;2.80;;;;;;;9.51;90.60;101427.59;5054530;28;20045;-72
2022/05/19 02:13:12;;;;;;;8.57;3.40;;;;;;;9.49;91.27;101439.25;5054587;28;20052;-72
2022/05/19 02:15:45;;;;;;;5.88;3.22;;;;;;;9.63;90.29;101445.78;5053468;28;20049;-72
2022/05/19 02:18:16;;;;;;;7.73;3.13;;;;;;;9.51;93.42;101435.59;5054413;28;20131;-73
2022/05/19 02:20:48;;;;;;;6.90;2.85;;;;;;;9.74;92.27;101427.59;5054297;28;20098;-74
2022/05/19 02:23:17;;;;;;;7.00;3.10;;;;;;;9.67;93.16;101426.13;5053974;28;20048;-75
2022/05/19 02:25:47;;;;;;;7.88;3.45;;;;;;;9.69;92.62;101439.38;5053785;28;20045;-74
2022/05/19 02:28:22;;;;;;;8.05;3.30;;;;;;;9.72;91.37;101428.59;5053999;28;20051;-75
2022/05/19 02:30:51;;;;;;;5.28;2.90;;;;;;;9.61;92.43;101437.00;5054268;28;20037;-72
2022/05/19 02:33:21;;;;;;;8.55;3.13;;;;;;;9.56;93.87;101438.09;5052484;28;20410;-72
2022/05/19 02:35:49;;;;;;;8.00;3.20;;;;;;;9.49;95.92;101437.44;5053987;28;20478;-75
2022/05/19 02:38:19;;;;;;;10.65;3.33;;;;;;;9.29;100.00;101445.31;5053628;28;20045;-75
2022/05/19 02:40:48;;;;;;;6.93;3.00;;;;;;;9.29;100.00;101443.50;5053044;28;20060;-73
2022/05/19 02:43:19;;;;;;;7.05;3.10;;;;;;;9.41;99.84;101450.19;5053141;28;20052;-73
2022/05/19 02:45:48;;;;;;;8.20;2.90;;;;;;;9.50;98.14;101449.84;5053929;28;20047;-70
2022/05/19 02:48:18;;;;;;;8.05;3.33;;;;;;;9.39;98.42;101452.03;5053289;28;20064;-76
2022/05/19 02:50:48;;;;;;;9.35;3.33;;;;;;;9.18;100.00;101451.00;5053163;28;20079;-72
2022/05/19 02:53:17;;;;;;;9.85;3.90;;;;;;;9.08;100.00;101462.91;5052472;28;20053;-73
2022/05/19 02:55:46;;;;;;;7.53;3.10;;;;;;;8.90;100.00;101453.75;5052373;28;20057;-73
2022/05/19 02:58:15;;;;;;;8.57;3.75;;;;;;;8.92;100.00;101457.22;5052314;28;20059;-73
2022/05/19 03:00:47;;;;;;;10.98;3.20;;;;;;;8.96;100.00;101464.19;5053643;28;20119;-72
2022/05/19 03:03:16;;;;;;;8.82;3.45;;;;;;;9.02;100.00;101457.78;5053562;28;20041;-74
2022/05/19 03:05:45;;;;;;;9.70;3.60;;;;;;;9.08;100.00;101468.22;5053520;28;20060;-73
2022/05/19 03:08:13;;;;;;;9.07;3.45;;;;;;;9.12;100.00;101460.06;5053487;28;20068;-75
2022/05/19 03:10:44;;;;;;;7.50;3.40;;;;;;;9.25;97.85;101465.81;5053285;28;20048;-74
2022/05/19 03:13:19;;;;;;;7.50;3.38;;;;;;;9.34;95.81;101465.50;5053418;28;20131;-73
2022/05/19 03:15:49;;;;;;;6.50;3.42;;;;;;;9.43;93.26;101461.63;5053376;28;20083;-74
2022/05/19 03:18:18;;;;;;;9.75;3.40;;;;;;;9.54;86.04;101459.44;5051708;28;20057;-73
2022/05/19 03:20:46;;;;;;;5.47;3.00;;;;;;;9.56;84.24;101465.63;5052936;28;20394;-74
2022/05/19 03:23:14;;;;;;;5.70;2.90;;;;;;;9.54;83.10;101456.78;5053179;28;20112;-72
2022/05/19 03:25:42;;;;;;;6.57;3.15;;;;;;;9.48;82.44;101464.16;5052969;28;20036;-72
2022/05/19 03:28:13;;;;;;;7.43;3.25;;;;;;;9.57;82.29;101462.03;5051902;28;20053;-72
2022/05/19 03:30:42;;;;;;;7.85;3.30;;;;;;;9.77;81.06;101465.75;5052918;28;20049;-75
2022/05/19 03:33:12;;;;;;;5.57;2.97;;;;;;;9.70;81.61;101465.09;5053178;28;20071;-74
2022/05/19 03:35:42;;;;;;;7.13;3.13;;;;;;;9.74;82.19;101470.22;5051665;28;20063;-74
2022/05/19 03:38:11;;;;;;;8.85;3.30;;;;;;;9.88;82.78;101463.53;5054163;28;20127;-78
2022/05/19 03:40:39;;;;;;;7.07;3.00;;;;;;;9.84;82.56;101480.53;5056775;28;20110;-75
2022/05/19 03:43:07;;;;;;;8.00;3.28;;;;;;;10.08;80.85;101478.75;5057104;28;20041;-75
2022/05/19 03:45:40;;;;;;;11.10;4.03;;;;;;;10.49;79.17;101485.16;5057007;28;20095;-77
2022/05/19 03:48:09;;;;;;;7.00;3.03;;;;;;;11.44;73.39;101493.56;5057135;28;20542;-77
2022/05/19 03:50:39;;;;;;;10.05;3.58;;;;;;;12.18;69.05;101479.56;5056524;28;20053;-76
2022/05/19 03:53:07;;;;;;;12.77;3.33;;;;;;;12.93;65.74;101487.44;5057356;28;20452;-76
2022/05/19 03:55:35;;;;;;;6.72;3.17;;;;;;;12.85;65.04;101486.97;5055479;28;20056;-75
2022/05/19 03:58:03;;;;;;;9.50;2.72;;;;;;;14.08;61.00;101474.22;5057026;28;20401;-75
2022/05/19 04:00:32;;;;;;;6.30;2.95;;;;;;;14.68;58.24;101482.47;5056706;28;20036;-75
2022/05/19 04:03:01;;;;;;;8.25;3.05;;;;;;;15.45;55.60;101481.47;5056777;28;20049;-75
2022/05/19 04:05:29;;;;;;;7.88;3.08;;;;;;;15.07;56.92;101489.16;5056717;28;20446;-75
2022/05/19 04:07:59;;;;;;;6.90;3.08;;;;;;;15.84;54.39;101486.25;5056765;28;20047;-75
2022/05/19 04:10:27;;;;;;;9.02;3.25;;;;;;;15.44;55.04;101498.53;5056687;28;20529;-75
2022/05/19 04:12:56;;;;;;;6.28;2.95;;;;;;;15.82;54.45;101488.16;5056397;28;20162;-76
2022/05/19 04:15:24;;;;;;;12.32;3.67;;;;;;;16.48;52.24;101487.50;5055102;28;20048;-76
2022/05/19 04:17:52;;;;;;;7.00;3.08;;;;;;;16.69;51.24;101490.63;5056642;28;20059;-75
2022/05/19 04:20:20;;;;;;;10.23;3.40;;;;;;;16.35;52.12;101486.56;5055265;28;20053;-75
2022/05/19 04:22:49;;;;;;;6.10;3.42;;;;;;;16.59;51.01;101495.72;5055229;28;20048;-75
2022/05/19 04:25:18;;;;;;;7.95;3.40;;;;;;;16.80;50.36;101492.66;5056508;28;20040;-75
2022/05/19 04:27:47;;;;;;;7.43;3.22;;;;;;;16.93;49.96;101493.53;5056214;28;20116;-75
2022/05/19 04:30:15;;;;;;;7.75;2.92;;;;;;;16.62;49.22;101499.22;5056262;28;20044;-75
2022/05/19 04:32:44;;;;;;;6.72;3.25;;;;;;;16.42;49.94;101500.53;5055785;28;20045;-75
2022/05/19 04:35:14;;;;;;;6.88;2.80;;;;;;;17.06;47.63;101505.22;5055082;28;20053;-73
2022/05/19 04:37:43;;;;;;;7.75;2.90;;;;;;;17.15;47.88;101506.44;5056227;28;20045;-73
2022/05/19 04:40:12;;;;;;;7.22;2.70;;;;;;;16.97;47.27;101504.97;5054442;28;20049;-73
2022/05/19 04:42:46;;;;;;;7.88;3.17;;;;;;;17.36;46.55;101504.94;5054607;28;20072;-73
2022/05/19 04:45:16;;;;;;;6.93;2.80;;;;;;;17.66;46.02;101504.69;5054739;28;20244;-73
2022/05/19 04:47:45;;;;;;;7.40;3.05;;;;;;;18.04;44.42;101498.41;5054181;28;20140;-73
2022/05/19 04:50:14;;;;;;;9.35;3.13;;;;;;;18.21;44.57;101499.91;5055356;28;20053;-72
2022/05/19 04:52:42;;;;;;;6.82;3.10;;;;;;;18.43;44.07;101493.78;5055420;28;20076;-76
2022/05/19 04:55:11;;;;;;;5.25;2.90;;;;;;;18.39;43.94;101495.00;5054452;28;20063;-77
2022/05/19 04:57:42;;;;;;;6.57;2.92;;;;;;;18.84;43.20;101497.03;5055535;28;20047;-77
2022/05/19 05:00:14;;;;;;;8.57;3.00;;;;;;;18.98;42.27;101495.97;5055847;28;20048;-77
2022/05/19 05:02:42;;;;;;;7.53;3.00;;;;;;;18.86;41.65;101486.97;5054528;28;20228;-73
2022/05/19 05:05:11;;;;;;;6.75;2.85;;;;;;;18.66;41.62;101494.84;5055457;28;20076;-73
2022/05/19 05:07:39;;;;;;;9.65;2.83;;;;;;;19.04;40.92;101490.13;5054139;28;20045;-77
2022/05/19 05:10:08;;;;;;;7.82;2.97;;;;;;;19.60;39.81;101492.16;5055668;28;20462;-75
2022/05/19 05:12:36;;;;;;;8.65;3.15;;;;;;;20.07;38.91;101492.91;5053979;28;20049;-73
2022/05/19 05:15:06;;;;;;;9.60;3.42;;;;;;;20.07;37.67;101490.19;5055322;28;20045;-73
2022/05/19 05:17:39;;;;;;;7.65;3.28;;;;;;;19.89;38.77;101506.97;5055023;28;20037;-71
2022/05/19 05:20:09;;;;;;;7.00;3.05;;;;;;;19.98;38.14;101497.25;5054429;28;20041;-78
2022/05/19 05:22:37;;;;;;;5.93;2.95;;;;;;;20.43;37.05;101503.50;5052879;28;20131;-75
2022/05/19 05:25:09;;;;;;;6.68;2.90;;;;;;;20.17;37.44;101508.31;5060141;28;20072;-75
2022/05/19 05:27:37;;;;;;;7.97;3.42;;;;;;;20.64;36.67;101508.13;5053392;28;20094;-73
2022/05/19 05:30:09;;;;;;;9.85;3.40;;;;;;;21.42;35.19;101508.75;5055210;28;20040;-77
2022/05/19 05:32:39;;;;;;;7.75;3.22;;;;;;;21.13;35.39;101510.31;5054972;28;20080;-81
2022/05/19 05:35:10;;;;;;;7.63;3.50;;;;;;;20.97;35.46;101507.19;5053886;28;20049;-77
2022/05/19 05:37:38;;;;;;;6.53;3.10;;;;;;;21.52;34.86;101508.81;5070354;28;20052;-75
2022/05/19 05:40:08;;;;;;;5.43;3.28;;;;;;;21.52;34.58;101508.81;5054719;28;20128;-87
2022/05/19 05:42:36;;;;;;;10.23;3.70;;;;;;;21.59;34.53;101509.97;5054640;28;20049;-78
2022/05/19 05:45:06;;;;;;;9.20;3.25;;;;;;;22.05;33.92;101511.38;5053465;28;20433;-77
2022/05/19 05:47:34;;;;;;;5.82;3.30;;;;;;;22.13;32.74;101513.47;5052914;28;20513;-78
2022/05/19 05:50:10;;;;;;;6.55;3.47;;;;;;;22.37;32.28;101510.38;5053387;28;20049;-76
2022/05/19 05:52:38;;;;;;;6.10;3.42;;;;;;;22.60;31.89;101514.63;5054314;28;20071;-75
2022/05/19 05:55:07;;;;;;;6.90;3.60;;;;;;;22.35;32.68;101510.53;5054648;28;20051;-74
2022/05/19 05:57:35;;;;;;;9.27;3.78;;;;;;;22.49;31.91;101515.59;5052914;28;20048;-74
2022/05/19 06:00:06;;;;;;;8.70;3.63;;;;;;;22.96;30.84;101517.69;5054104;28;20045;-77
2022/05/19 06:02:36;;;;;;;8.15;3.90;;;;;;;22.45;31.97;101519.56;5053468;28;20045;-76
2022/05/19 06:05:12;;;;;;;6.25;3.60;;;;;;;22.84;32.17;101517.84;5053933;28;20041;-78
2022/05/19 06:07:40;;;;;;;7.80;3.45;;;;;;;23.79;30.35;101513.50;5053625;28;20045;-74
2022/05/19 06:10:09;;;;;;;9.85;3.78;;;;;;;24.15;28.99;101511.81;5053039;28;20053;-74
2022/05/19 06:12:38;;;;;;;8.38;3.42;;;;;;;24.25;28.57;101509.91;5053753;28;20127;-74
2022/05/19 06:15:08;;;;;;;6.07;4.05;;;;;;;24.50;28.18;101505.63;5052650;28;20053;-75
2022/05/19 06:17:39;;;;;;;10.48;4.25;;;;;;;24.88;27.06;101499.06;5053329;28;20056;-76
2022/05/19 06:20:10;;;;;;;8.02;4.22;;;;;;;25.07;27.05;101498.94;5069079;28;20049;-75
2022/05/19 06:22:40;;;;;;;10.63;4.13;;;;;;;25.22;26.72;101496.53;5052006;28;20049;-73
2022/05/19 06:25:10;;;;;;;8.30;3.70;;;;;;;25.05;26.72;101495.50;5053889;28;20037;-72
2022/05/19 06:27:38;;;;;;;6.95;3.88;;;;;;;25.26;26.93;101502.53;5052510;28;20053;-70
2022/05/19 06:30:08;;;;;;;7.22;4.10;;;;;;;24.98;26.63;101504.44;5054025;28;20123;-70
2022/05/19 06:32:36;;;;;;;10.15;3.97;;;;;;;24.91;26.69;101509.69;5052338;28;20103;-70
2022/05/19 06:35:07;;;;;;;6.85;3.55;;;;;;;23.88;28.12;101509.91;5053779;28;20431;-74
2022/05/19 06:37:35;;;;;;;8.07;4.05;;;;;;;24.57;27.39;101514.06;5053465;28;20080;-76
2022/05/19 06:40:06;;;;;;;6.97;3.88;;;;;;;25.42;27.14;101513.59;5053973;28;20427;-76
2022/05/19 06:42:35;;;;;;;11.60;4.85;;;;;;;26.01;26.14;101511.13;5052277;28;20045;-77
2022/05/19 06:45:04;;;;;;;9.27;4.13;;;;;;;26.24;25.40;101509.50;5053811;28;20094;-72
2022/05/19 06:47:33;;;;;;;10.60;4.50;;;;;;;26.15;25.42;101510.50;5053637;28;20044;-73
2022/05/19 06:50:01;;;;;;;8.02;4.10;;;;;;;26.28;25.21;101510.06;5053657;28;20041;-69
2022/05/19 06:52:31;;;;;;;9.80;4.35;;;;;;;26.02;26.35;101510.94;5053676;28;20441;-70
2022/05/19 06:55:02;;;;;;;10.73;4.70;;;;;;;25.51;26.82;101515.38;5053622;28;20037;-72
2022/05/19 06:57:32;;;;;;;9.65;4.57;;;;;;;23.67;28.35;101518.28;5053659;28;20098;-71
2022/05/19 07:00:00;;;;;;;8.82;4.70;;;;;;;22.83;30.05;101516.09;5052122;28;20445;-73
2022/05/19 07:02:28;;;;;;;8.23;4.57;;;;;;;22.62;30.75;101506.31;5053091;28;20112;-73
2022/05/19 07:04:56;;;;;;;9.70;4.70;;;;;;;22.79;30.02;101514.66;5051754;28;20137;-75
2022/05/19 07:07:25;;;;;;;8.93;3.83;;;;;;;22.56;29.05;101510.44;5068590;28;20136;-73
2022/05/19 07:09:53;;;;;;;8.23;4.40;;;;;;;22.22;29.62;101509.94;5052773;28;20052;-73
2022/05/19 07:12:23;;;;;;;11.45;5.13;;;;;;;22.09;31.22;101506.56;5051888;28;20049;-73
2022/05/19 07:14:53;;;;;;;9.35;4.63;;;;;;;22.15;31.58;101506.88;5052296;28;20041;-73
2022/05/19 07:17:21;;;;;;;13.52;5.07;;;;;;;21.97;31.16;101506.63;5051562;28;20088;-72
2022/05/19 07:22:35;;;;;;;10.20;3.35;;;;;;;21.80;30.16;101515.41;5068045;28;20094;-74
2022/05/19 07:25:06;;;;;;;6.25;2.80;;;;;;;21.83;28.32;101507.00;5067908;28;20053;-74
2022/05/19 07:27:35;;;;;;;6.00;2.25;;;;;;;21.85;27.45;101512.28;5068338;28;20049;-73
2022/05/19 07:30:06;;;;;;;8.23;2.63;;;;;;;21.60;27.06;101510.84;5052398;28;20068;-73
2022/05/19 07:32:35;;;;;;;11.00;2.90;;;;;;;21.46;27.84;101514.75;5051475;28;20053;-74
2022/05/19 07:35:04;;;;;;;7.45;2.80;;;;;;;21.39;29.66;101509.00;5051292;28;20080;-74
2022/05/19 07:37:33;;;;;;;7.32;2.85;;;;;;;21.26;29.22;101502.00;5068187;28;20052;-73
2022/05/19 07:40:01;;;;;;;7.30;3.20;;;;;;;21.33;29.55;101500.53;5051234;28;20084;-73
2022/05/19 07:42:30;;;;;;;8.15;2.67;;;;;;;21.28;29.36;101505.47;5052802;28;20041;-73
2022/05/19 07:44:58;;;;;;;6.28;2.78;;;;;;;21.26;29.85;101499.31;5052376;28;20106;-73
2022/05/19 07:47:29;;;;;;;7.30;2.88;;;;;;;21.11;28.54;101505.03;5051629;28;20050;-73
2022/05/19 07:49:57;;;;;;;7.22;2.95;;;;;;;21.17;29.79;101498.22;5051577;28;20049;-73
2022/05/19 07:52:30;;;;;;;8.20;2.80;;;;;;;21.23;28.70;101494.13;5053022;28;20052;-73
2022/05/19 07:54:58;;;;;;;5.85;2.55;;;;;;;21.27;28.44;101492.91;5067841;28;20412;-72
2022/05/19 07:57:26;;;;;;;5.93;2.30;;;;;;;21.33;27.27;101492.41;5068563;28;20095;-73
2022/05/19 07:59:55;;;;;;;8.98;2.60;;;;;;;21.25;27.12;101492.16;5052561;28;20056;-75
2022/05/19 08:02:23;;;;;;;5.53;2.25;;;;;;;21.19;26.84;101495.38;5051322;28;20115;-72
2022/05/19 08:04:53;;;;;;;4.70;2.40;;;;;;;21.14;27.83;101493.94;5052499;28;20122;-73
2022/05/19 08:07:21;;;;;;;5.38;2.17;;;;;;;21.20;28.34;101499.81;5051305;28;20537;-72
2022/05/19 08:18:12;;;;;;;4.55;1.92;;;;;;;21.20;27.65;101491.66;5049321;28;20505;-73
2022/05/19 08:20:44;;;;;;;5.43;2.00;;;;;;;21.36;26.41;101502.97;5050910;28;20106;-79
2022/05/19 08:23:16;;;;;;;5.70;1.73;;;;;;;21.09;25.76;101495.31;5052723;28;20048;-73
2022/05/19 08:25:45;;;;;;;5.32;2.10;;;;;;;21.04;26.74;101493.00;5054246;28;20048;-73
2022/05/19 08:28:16;;;;;;;8.55;2.05;;;;;;;20.92;25.89;101495.88;5055205;28;20454;-74
2022/05/19 08:30:47;;;;;;;2.88;1.67;;;;;;;20.96;27.01;101497.34;5054871;28;20052;-74
2022/05/19 08:33:16;;;;;;;4.43;1.70;;;;;;;21.12;24.98;101495.88;5056237;28;20052;-72
2022/05/19 08:35:47;;;;;;;9.48;2.42;;;;;;;21.15;26.05;101490.22;5054541;28;20056;-72
2022/05/19 08:38:15;;;;;;;4.38;1.70;;;;;;;21.30;24.68;101495.34;5055908;28;20052;-72
2022/05/19 08:40:48;;;;;;;3.30;1.80;;;;;;;21.25;25.53;101489.44;5055814;28;20079;-75
2022/05/19 08:43:18;;;;;;;6.30;2.20;;;;;;;21.26;25.80;101496.59;5071439;28;20053;-72
2022/05/19 08:45:51;;;;;;;5.07;2.10;;;;;;;21.41;25.37;101489.84;5055467;28;20069;-75
2022/05/19 08:48:21;;;;;;;6.00;2.03;;;;;;;21.39;24.77;101498.13;5054201;28;20049;-73
2022/05/19 08:50:55;;;;;;;4.53;1.60;;;;;;;21.28;24.74;101494.63;5054877;28;20052;-74
2022/05/19 08:53:24;;;;;;;;;;;;;;;21.42;24.68;101497.00;5054290;28;20406;-74
2022/05/19 08:55:57;;;;;;;5.85;1.90;;;;;;;21.18;25.79;101486.38;5053623;28;19921;-74
2022/05/19 08:58:49;;;;;;;4.78;2.00;;;;;;;21.25;25.93;101487.59;5053622;28;20053;-73
2022/05/19 09:01:24;;;;;;;5.90;2.03;;;;;;;21.26;25.08;101483.03;5055239;28;20106;-74
2022/05/19 09:04:01;;;;;;;4.57;2.13;;;;;;;21.34;25.34;101488.69;5054779;28;20041;-74
2022/05/19 09:07:56;;;;;;;5.07;2.42;;;;;;;21.05;26.25;101478.44;5055663;28;20047;-74
2022/05/19 09:09:47;;;;;;;6.93;2.22;;;;;;;21.24;24.48;101483.16;5053807;28;20049;-72
2022/05/19 09:12:19;;;;;;;;;;;;;;;21.43;25.31;101486.03;5054620;28;20494;-73
2022/05/19 09:14:47;;;;;;;5.30;2.30;;;;;;;21.48;25.55;101480.19;5055294;28;19924;-73
2022/05/19 09:17:17;;;;;;;6.78;2.50;;;;;;;21.50;26.53;101483.63;5053930;28;20106;-74
2022/05/19 09:19:50;;;;;;;4.43;2.35;;;;;;;21.57;25.45;101482.13;5053914;28;20110;-75
2022/05/19 09:22:21;;;;;;;5.57;2.38;;;;;;;21.63;26.45;101484.31;5054213;28;20052;-74
2022/05/19 09:24:52;;;;;;;8.27;2.58;;;;;;;21.57;26.61;101473.13;5054601;28;20045;-75
2022/05/19 09:27:23;;;;;;;6.90;2.53;;;;;;;21.59;26.02;101469.25;5070507;28;20049;-74
2022/05/19 09:29:53;;;;;;;6.97;2.40;;;;;;;21.80;26.62;101476.50;5070183;28;20052;-74
2022/05/19 09:32:26;;;;;;;4.43;1.90;;;;;;;21.92;26.40;101472.75;5054737;28;20047;-74
2022/05/19 09:35:05;;;;;;;5.90;1.95;;;;;;;21.76;25.35;101464.22;5053283;28;20094;-74
2022/05/19 09:37:48;;;;;;;7.30;2.10;;;;;;;21.81;25.35;101461.94;5054027;28;20033;-74
2022/05/19 09:40:22;;;;;;;6.50;1.88;;;;;;;21.92;24.73;101456.44;5055138;28;20132;-74
2022/05/19 09:43:14;;;;;;;;;;;;;;;21.99;24.53;101460.31;5053760;28;20045;-74
2022/05/19 09:45:45;;;;;;;3.78;1.70;;;;;;;21.85;24.56;101460.69;5054516;28;19921;-74
2022/05/19 09:48:15;;;;;;;4.25;1.73;;;;;;;21.81;24.91;101453.78;5054776;28;20131;-74
2022/05/19 09:50:46;;;;;;;4.78;1.70;;;;;;;21.91;25.27;101452.00;5052984;28;20119;-74
2022/05/19 09:53:22;;;;;;;6.97;1.70;;;;;;;22.07;25.56;101449.66;5054340;28;20116;-74
2022/05/19 09:55:55;;;;;;;5.00;2.00;;;;;;;22.18;24.40;101441.38;5069461;28;20549;-74
2022/05/19 09:58:30;;;;;;;4.97;1.98;;;;;;;22.05;25.02;101440.75;5054638;28;20049;-74
2022/05/19 10:01:02;;;;;;;8.80;1.80;;;;;;;21.82;24.94;101437.38;5054258;28;20048;-74
2022/05/19 10:03:37;;;;;;;3.97;2.00;;;;;;;21.91;24.66;101442.00;5054155;28;20124;-74
2022/05/19 10:06:09;;;;;;;3.65;1.75;;;;;;;22.01;25.14;101428.47;5052491;28;20053;-72
2022/05/19 10:08:41;;;;;;;3.70;1.90;;;;;;;22.13;24.74;101442.81;5054116;28;20041;-74
2022/05/19 10:11:22;;;;;;;6.38;1.90;;;;;;;22.09;25.57;101433.19;5054145;28;20055;-74
2022/05/19 10:13:57;;;;;;;4.57;1.83;;;;;;;22.26;24.69;101419.81;5052680;28;20096;-74
2022/05/19 10:16:35;;;;;;;6.47;2.28;;;;;;;22.38;25.70;101420.53;5052944;28;20099;-75
2022/05/19 10:19:15;;;;;;;5.35;2.20;;;;;;;22.42;25.12;101426.59;5052567;28;20052;-74
2022/05/19 10:22:07;;;;;;;3.92;2.17;;;;;;;22.45;24.38;101427.16;5052797;28;20408;-73
2022/05/19 10:24:52;;;;;;;6.18;2.10;;;;;;;22.37;24.24;101423.41;5053764;28;20049;-74
2022/05/19 10:33:21;;;;;;;5.70;1.40;;;;;;;22.22;24.47;101409.38;5051940;28;20060;-74
2022/05/19 10:36:02;;;;;;;3.88;1.33;;;;;;;22.48;23.81;101404.25;5053187;28;20052;-82
2022/05/19 10:38:43;;;;;;;5.00;1.77;;;;;;;22.39;23.50;101411.41;5052319;28;20041;-74
2022/05/19 10:41:34;;;;;;;5.53;2.10;;;;;;;22.21;24.13;101403.09;5051890;28;20487;-74
2022/05/19 10:44:21;;;;;;;4.10;1.52;;;;;;;22.30;23.64;101403.25;5052033;28;20052;-74
2022/05/19 10:47:01;;;;;;;4.00;1.52;;;;;;;22.37;22.97;101402.53;5051756;28;20049;-73
2022/05/19 10:49:48;;;;;;;4.95;1.70;;;;;;;22.51;21.95;101398.56;5068696;28;20053;-73
2022/05/19 10:52:29;;;;;;;3.28;1.50;;;;;;;22.54;22.20;101393.69;5051938;28;20111;-73
2022/05/19 10:55:09;;;;;;;3.60;1.50;;;;;;;22.64;22.64;101385.53;5051919;28;20091;-73
2022/05/19 10:58:02;;;;;;;2.22;1.20;;;;;;;22.70;22.96;101382.25;5052262;28;20072;-73
2022/05/19 11:00:43;;;;;;;3.10;1.45;;;;;;;22.80;23.34;101387.69;5053363;28;20123;-73
2022/05/19 11:03:30;;;;;;;3.55;1.50;;;;;;;22.65;22.98;101379.06;5053145;28;20091;-73
2022/05/19 11:06:11;;;;;;;3.50;1.60;;;;;;;22.65;23.49;101375.50;5051945;28;20045;-73
2022/05/19 11:08:53;;;;;;;5.70;1.45;;;;;;;22.57;22.95;101371.63;5052195;28;20049;-74
2022/05/19 11:11:30;;;;;;;4.38;1.52;;;;;;;22.60;22.77;101364.22;5053026;28;20087;-74
2022/05/19 11:14:12;;;;;;;6.97;1.58;;;;;;;22.72;23.16;101358.47;5051693;28;20087;-74
2022/05/19 11:16:46;;;;;;;4.45;1.52;;;;;;;22.99;22.46;101354.19;5052933;28;20064;-74
2022/05/19 11:19:23;;;;;;;5.40;1.40;;;;;;;22.96;22.25;101351.72;5051618;28;20049;-74
2022/05/19 11:21:56;;;;;;;2.20;1.25;;;;;;;22.90;22.64;101352.34;5051716;28;20047;-74
2022/05/19 11:24:29;;;;;;;4.80;1.80;;;;;;;22.94;23.04;101351.88;5052680;28;20068;-74
2022/05/19 11:27:04;;;;;;;4.03;1.33;;;;;;;23.10;23.08;101343.13;5051510;28;20090;-74
2022/05/19 11:29:44;;;;;;;5.15;1.60;;;;;;;22.84;23.16;101337.44;5068629;28;20053;-74
2022/05/19 11:32:16;;;;;;;4.75;1.63;;;;;;;22.98;21.80;101342.44;5052601;28;20084;-74
2022/05/19 11:34:50;;;;;;;3.22;1.20;;;;;;;22.92;22.14;101342.16;5051911;28;20052;-74
2022/05/19 11:37:29;;;;;;;4.95;1.50;;;;;;;22.94;22.66;101323.81;5052736;28;20048;-73
2022/05/19 11:40:09;;;;;;;4.50;1.73;;;;;;;22.90;22.03;101333.31;5052838;28;20041;-76
2022/05/19 11:42:43;;;;;;;3.42;1.42;;;;;;;22.97;21.92;101327.13;5052830;28;20099;-75
2022/05/19 11:45:22;;;;;;;4.85;1.70;;;;;;;23.16;21.68;101328.91;5051368;28;20053;-75
2022/05/19 11:56:36;;;;;;;9.00;1.70;;;;;;;23.32;22.02;101315.53;5052504;28;20075;-73
2022/05/19 11:59:09;;;;;;;3.55;1.30;;;;;;;23.21;21.99;101314.88;5051535;28;20494;-74
2022/05/19 12:01:42;;;;;;;;;;;;;;;23.18;22.50;101313.31;5055819;28;20136;-73
2022/05/19 12:04:18;;;;;;;3.10;1.30;;;;;;;23.23;22.73;101297.38;5056439;28;20015;-73
2022/05/19 12:06:49;;;;;;;2.05;1.25;;;;;;;23.06;22.12;101296.28;5054984;28;20048;-73
2022/05/19 12:09:25;;;;;;;7.63;1.55;;;;;;;23.29;21.87;101298.66;5054617;28;20139;-73
2022/05/19 12:11:58;;;;;;;6.97;1.60;;;;;;;23.36;22.77;101294.34;5056157;28;20041;-73
2022/05/19 12:14:37;;;;;;;4.13;1.50;;;;;;;23.47;21.47;101285.97;5054374;28;20060;-73